sensor_id;sensor_type;location;lat;lon;timestamp;pressure;altitude;pressure_sealevel;temperature;humidity
27729;BME280;15126;42.186;24.340;2023-04-05T00:02:00;98644.63;;;6.47;72.77
27729;BME280;15126;42.186;24.340;2023-04-05T00:04:27;98642.81;;;6.37;73.41
27729;BME280;15126;42.186;24.340;2023-04-05T00:06:54;98647.47;;;6.43;72.75
27729;BME280;15126;42.186;24.340;2023-04-05T00:09:23;98638.44;;;6.39;73.21
27729;BME280;15126;42.186;24.340;2023-04-05T00:11:50;98636.56;;;6.33;73.62
27729;BME280;15126;42.186;24.340;2023-04-05T00:14:17;98637.28;;;6.37;73.04
27729;BME280;15126;42.186;24.340;2023-04-05T00:16:44;98643.19;;;6.39;73.77
27729;BME280;15126;42.186;24.340;2023-04-05T00:19:11;98636.44;;;6.40;72.83
27729;BME280;15126;42.186;24.340;2023-04-05T00:21:38;98635.34;;;6.34;73.27
27729;BME280;15126;42.186;24.340;2023-04-05T00:24:05;98633.41;;;6.31;72.31
27729;BME280;15126;42.186;24.340;2023-04-05T00:26:41;98645.22;;;6.35;72.77
27729;BME280;15126;42.186;24.340;2023-04-05T00:29:09;98647.66;;;6.33;74.13
27729;BME280;15126;42.186;24.340;2023-04-05T00:31:36;98650.75;;;6.35;73.78
27729;BME280;15126;42.186;24.340;2023-04-05T00:34:03;98641.97;;;6.40;73.63
27729;BME280;15126;42.186;24.340;2023-04-05T00:36:33;98642.03;;;6.36;73.84
27729;BME280;15126;42.186;24.340;2023-04-05T00:39:01;98654.69;;;6.37;74.19
27729;BME280;15126;42.186;24.340;2023-04-05T00:41:28;98646.06;;;6.32;73.28
27729;BME280;15126;42.186;24.340;2023-04-05T00:43:56;98648.94;;;6.25;73.90
27729;BME280;15126;42.186;24.340;2023-04-05T00:46:25;98647.69;;;6.29;73.53
27729;BME280;15126;42.186;24.340;2023-04-05T00:48:52;98650.03;;;6.31;74.25
27729;BME280;15126;42.186;24.340;2023-04-05T00:51:19;98658.66;;;6.36;75.00
27729;BME280;15126;42.186;24.340;2023-04-05T00:53:48;98660.22;;;6.37;74.34
27729;BME280;15126;42.186;24.340;2023-04-05T00:56:18;98653.06;;;6.40;74.78
27729;BME280;15126;42.186;24.340;2023-04-05T00:58:46;98645.28;;;6.31;72.86
27729;BME280;15126;42.186;24.340;2023-04-05T01:01:16;98661.09;;;6.31;74.19
27729;BME280;15126;42.186;24.340;2023-04-05T01:03:48;98653.34;;;6.22;73.89
27729;BME280;15126;42.186;24.340;2023-04-05T01:09:20;98655.22;;;5.98;74.26
27729;BME280;15126;42.186;24.340;2023-04-05T01:11:51;98647.22;;;6.08;75.39
27729;BME280;15126;42.186;24.340;2023-04-05T01:14:18;98661.09;;;6.04;74.07
27729;BME280;15126;42.186;24.340;2023-04-05T01:16:46;98658.31;;;6.04;73.75
27729;BME280;15126;42.186;24.340;2023-04-05T01:19:14;98624.94;;;5.84;74.37
27729;BME280;15126;42.186;24.340;2023-04-05T01:24:56;98660.38;;;6.00;75.00
27729;BME280;15126;42.186;24.340;2023-04-05T01:27:37;98660.03;;;5.94;74.44
27729;BME280;15126;42.186;24.340;2023-04-05T01:30:16;98669.19;;;5.91;74.03
27729;BME280;15126;42.186;24.340;2023-04-05T01:32:51;98672.66;;;5.95;74.92
27729;BME280;15126;42.186;24.340;2023-04-05T01:35:24;98670.38;;;5.90;74.19
27729;BME280;15126;42.186;24.340;2023-04-05T01:37:59;98670.44;;;5.83;75.34
27729;BME280;15126;42.186;24.340;2023-04-05T01:40:29;98656.63;;;5.80;74.80
27729;BME280;15126;42.186;24.340;2023-04-05T01:42:56;98668.97;;;5.75;74.90
27729;BME280;15126;42.186;24.340;2023-04-05T01:45:24;98664.28;;;5.69;74.58
27729;BME280;15126;42.186;24.340;2023-04-05T01:47:51;98670.19;;;5.71;75.41
27729;BME280;15126;42.186;24.340;2023-04-05T01:50:19;98674.94;;;5.70;75.43
27729;BME280;15126;42.186;24.340;2023-04-05T01:52:46;98673.47;;;5.62;74.99
27729;BME280;15126;42.186;24.340;2023-04-05T01:55:12;98671.06;;;5.64;74.90
27729;BME280;15126;42.186;24.340;2023-04-05T01:57:40;98678.22;;;5.62;75.93
27729;BME280;15126;42.186;24.340;2023-04-05T02:00:07;98680.19;;;5.61;74.31
27729;BME280;15126;42.186;24.340;2023-04-05T02:02:36;98682.59;;;5.59;75.34
27729;BME280;15126;42.186;24.340;2023-04-05T02:05:03;98681.81;;;5.59;75.02
27729;BME280;15126;42.186;24.340;2023-04-05T02:07:30;98688.56;;;5.54;74.44
27729;BME280;15126;42.186;24.340;2023-04-05T02:09:57;98691.28;;;5.58;74.90
27729;BME280;15126;42.186;24.340;2023-04-05T02:12:23;98685.06;;;5.50;74.39
27729;BME280;15126;42.186;24.340;2023-04-05T02:14:50;98697.34;;;5.46;72.90
27729;BME280;15126;42.186;24.340;2023-04-05T02:17:18;98701.63;;;5.54;74.40
27729;BME280;15126;42.186;24.340;2023-04-05T02:19:47;98695.78;;;5.45;74.56
27729;BME280;15126;42.186;24.340;2023-04-05T02:22:17;98697.81;;;5.40;73.61
27729;BME280;15126;42.186;24.340;2023-04-05T02:24:44;98697.72;;;5.48;73.86
27729;BME280;15126;42.186;24.340;2023-04-05T02:27:11;98704.06;;;5.45;73.34
27729;BME280;15126;42.186;24.340;2023-04-05T02:29:37;98701.00;;;5.35;74.28
27729;BME280;15126;42.186;24.340;2023-04-05T02:32:05;98705.66;;;5.46;73.14
27729;BME280;15126;42.186;24.340;2023-04-05T02:34:31;98700.97;;;5.39;72.26
27729;BME280;15126;42.186;24.340;2023-04-05T02:37:00;98696.56;;;5.45;73.06
27729;BME280;15126;42.186;24.340;2023-04-05T02:39:28;98697.75;;;5.44;73.61
27729;BME280;15126;42.186;24.340;2023-04-05T02:41:54;98707.19;;;5.50;72.20
27729;BME280;15126;42.186;24.340;2023-04-05T02:44:23;98695.72;;;5.52;73.10
27729;BME280;15126;42.186;24.340;2023-04-05T02:46:50;98691.75;;;5.49;72.71
27729;BME280;15126;42.186;24.340;2023-04-05T02:49:17;98698.78;;;5.57;72.63
27729;BME280;15126;42.186;24.340;2023-04-05T02:51:43;98695.66;;;5.55;73.47
27729;BME280;15126;42.186;24.340;2023-04-05T02:54:12;98697.22;;;5.60;72.16
27729;BME280;15126;42.186;24.340;2023-04-05T02:56:38;98705.50;;;5.60;72.58
27729;BME280;15126;42.186;24.340;2023-04-05T02:59:05;98699.09;;;5.66;72.68
27729;BME280;15126;42.186;24.340;2023-04-05T03:01:32;98663.72;;;5.51;72.45
27729;BME280;15126;42.186;24.340;2023-04-05T03:04:00;98706.06;;;5.78;71.75
27729;BME280;15126;42.186;24.340;2023-04-05T03:06:27;98699.91;;;5.63;73.78
27729;BME280;15126;42.186;24.340;2023-04-05T03:08:55;98695.59;;;5.62;71.54
27729;BME280;15126;42.186;24.340;2023-04-05T03:11:27;98708.41;;;5.79;72.44
27729;BME280;15126;42.186;24.340;2023-04-05T03:13:54;98702.16;;;5.75;73.91
27729;BME280;15126;42.186;24.340;2023-04-05T03:16:24;98708.09;;;5.74;73.39
27729;BME280;15126;42.186;24.340;2023-04-05T03:18:51;98710.47;;;5.72;71.72
27729;BME280;15126;42.186;24.340;2023-04-05T03:21:17;98719.16;;;5.74;71.93
27729;BME280;15126;42.186;24.340;2023-04-05T03:23:45;98707.75;;;5.68;71.89
27729;BME280;15126;42.186;24.340;2023-04-05T03:26:13;98726.94;;;5.82;72.53
27729;BME280;15126;42.186;24.340;2023-04-05T03:28:41;98722.59;;;5.85;72.98
27729;BME280;15126;42.186;24.340;2023-04-05T03:31:09;98724.53;;;5.88;71.61
27729;BME280;15126;42.186;24.340;2023-04-05T03:33:38;98732.38;;;5.93;72.40
27729;BME280;15126;42.186;24.340;2023-04-05T03:36:05;98718.53;;;5.96;72.34
27729;BME280;15126;42.186;24.340;2023-04-05T03:38:31;98727.97;;;5.99;71.63
27729;BME280;15126;42.186;24.340;2023-04-05T03:40:58;98725.97;;;6.03;71.63
27729;BME280;15126;42.186;24.340;2023-04-05T03:43:26;98727.88;;;6.06;71.93
27729;BME280;15126;42.186;24.340;2023-04-05T03:45:55;98726.34;;;6.02;72.74
27729;BME280;15126;42.186;24.340;2023-04-05T03:48:22;98730.00;;;5.95;72.47
27729;BME280;15126;42.186;24.340;2023-04-05T03:50:49;98730.41;;;5.93;71.22
27729;BME280;15126;42.186;24.340;2023-04-05T03:53:16;98736.69;;;5.97;71.14
27729;BME280;15126;42.186;24.340;2023-04-05T03:55:43;98729.59;;;5.96;71.84
27729;BME280;15126;42.186;24.340;2023-04-05T03:58:13;98737.59;;;5.87;70.80
27729;BME280;15126;42.186;24.340;2023-04-05T04:00:41;98736.06;;;5.79;71.40
27729;BME280;15126;42.186;24.340;2023-04-05T04:03:09;98747.91;;;5.83;71.43
27729;BME280;15126;42.186;24.340;2023-04-05T04:05:36;98742.38;;;5.83;71.25
27729;BME280;15126;42.186;24.340;2023-04-05T04:08:03;98755.78;;;5.88;70.61
27729;BME280;15126;42.186;24.340;2023-04-05T04:10:31;98752.66;;;5.86;72.87
27729;BME280;15126;42.186;24.340;2023-04-05T04:12:58;98746.69;;;5.88;70.89
27729;BME280;15126;42.186;24.340;2023-04-05T04:15:24;98755.75;;;5.92;71.72
27729;BME280;15126;42.186;24.340;2023-04-05T04:17:52;98749.56;;;5.74;71.62
27729;BME280;15126;42.186;24.340;2023-04-05T04:20:20;98751.13;;;5.78;72.50
27729;BME280;15126;42.186;24.340;2023-04-05T04:22:47;98754.75;;;5.72;70.64
27729;BME280;15126;42.186;24.340;2023-04-05T04:25:14;98750.44;;;5.67;71.66
27729;BME280;15126;42.186;24.340;2023-04-05T04:27:44;98770.53;;;5.75;71.55
27729;BME280;15126;42.186;24.340;2023-04-05T04:30:13;98764.66;;;5.69;71.73
27729;BME280;15126;42.186;24.340;2023-04-05T04:32:41;98770.97;;;5.70;71.52
27729;BME280;15126;42.186;24.340;2023-04-05T04:35:22;98764.34;;;5.60;71.41
27729;BME280;15126;42.186;24.340;2023-04-05T04:37:51;98780.09;;;5.67;71.33
27729;BME280;15126;42.186;24.340;2023-04-05T04:40:19;98774.91;;;5.72;70.83
27729;BME280;15126;42.186;24.340;2023-04-05T04:42:47;98782.00;;;5.73;70.87
27729;BME280;15126;42.186;24.340;2023-04-05T04:45:16;98782.84;;;5.67;71.56
27729;BME280;15126;42.186;24.340;2023-04-05T04:47:43;98792.34;;;5.66;70.40
27729;BME280;15126;42.186;24.340;2023-04-05T04:50:11;98776.97;;;5.65;70.58
27729;BME280;15126;42.186;24.340;2023-04-05T04:52:40;98760.91;;;5.49;69.92
27729;BME280;15126;42.186;24.340;2023-04-05T04:55:08;98779.75;;;5.61;70.78
27729;BME280;15126;42.186;24.340;2023-04-05T04:57:38;98788.84;;;5.62;71.48
27729;BME280;15126;42.186;24.340;2023-04-05T05:00:06;98780.56;;;5.58;71.66
27729;BME280;15126;42.186;24.340;2023-04-05T05:02:37;98795.56;;;5.61;70.41
27729;BME280;15126;42.186;24.340;2023-04-05T05:05:05;98793.47;;;5.72;69.63
27729;BME280;15126;42.186;24.340;2023-04-05T05:07:32;98791.56;;;5.65;70.67
27729;BME280;15126;42.186;24.340;2023-04-05T05:10:00;98790.38;;;5.66;69.16
27729;BME280;15126;42.186;24.340;2023-04-05T05:12:27;98793.13;;;5.66;69.63
27729;BME280;15126;42.186;24.340;2023-04-05T05:14:54;98796.59;;;5.74;69.61
27729;BME280;15126;42.186;24.340;2023-04-05T05:17:21;98801.69;;;5.79;69.68
27729;BME280;15126;42.186;24.340;2023-04-05T05:19:48;98793.81;;;5.77;69.56
27729;BME280;15126;42.186;24.340;2023-04-05T05:22:15;98806.00;;;5.83;68.27
27729;BME280;15126;42.186;24.340;2023-04-05T05:24:42;98810.28;;;5.91;70.44
27729;BME280;15126;42.186;24.340;2023-04-05T05:27:11;98809.75;;;6.04;69.28
27729;BME280;15126;42.186;24.340;2023-04-05T05:29:38;98820.66;;;6.18;69.60
27729;BME280;15126;42.186;24.340;2023-04-05T05:32:04;98815.94;;;6.15;68.15
27729;BME280;15126;42.186;24.340;2023-04-05T05:34:31;98811.53;;;6.21;67.24
27729;BME280;15126;42.186;24.340;2023-04-05T05:36:59;98830.44;;;6.26;67.37
27729;BME280;15126;42.186;24.340;2023-04-05T05:39:25;98824.50;;;6.27;67.82
27729;BME280;15126;42.186;24.340;2023-04-05T05:41:52;98829.16;;;6.34;66.57
27729;BME280;15126;42.186;24.340;2023-04-05T05:44:20;98838.28;;;6.31;66.46
27729;BME280;15126;42.186;24.340;2023-04-05T05:46:47;98818.97;;;6.27;66.57
27729;BME280;15126;42.186;24.340;2023-04-05T05:49:15;98833.50;;;6.35;66.99
27729;BME280;15126;42.186;24.340;2023-04-05T05:51:41;98842.22;;;6.33;66.07
27729;BME280;15126;42.186;24.340;2023-04-05T05:54:08;98840.56;;;6.39;66.04
27729;BME280;15126;42.186;24.340;2023-04-05T05:56:35;98838.22;;;6.38;66.75
27729;BME280;15126;42.186;24.340;2023-04-05T05:59:02;98832.00;;;6.30;67.41
27729;BME280;15126;42.186;24.340;2023-04-05T06:01:30;98835.78;;;6.43;68.38
27729;BME280;15126;42.186;24.340;2023-04-05T06:03:59;98829.47;;;6.43;67.08
27729;BME280;15126;42.186;24.340;2023-04-05T06:06:26;98830.19;;;6.47;66.54
27729;BME280;15126;42.186;24.340;2023-04-05T06:08:54;98818.41;;;6.39;66.50
27729;BME280;15126;42.186;24.340;2023-04-05T06:11:21;98834.81;;;6.57;64.55
27729;BME280;15126;42.186;24.340;2023-04-05T06:13:49;98834.34;;;6.62;65.91
27729;BME280;15126;42.186;24.340;2023-04-05T06:16:17;98817.78;;;6.58;64.89
27729;BME280;15126;42.186;24.340;2023-04-05T06:18:45;98831.63;;;6.58;65.87
27729;BME280;15126;42.186;24.340;2023-04-05T06:21:12;98828.53;;;6.53;65.57
27729;BME280;15126;42.186;24.340;2023-04-05T06:23:39;98842.75;;;6.55;64.73
27729;BME280;15126;42.186;24.340;2023-04-05T06:26:06;98815.31;;;6.34;66.04
27729;BME280;15126;42.186;24.340;2023-04-05T06:28:33;98846.38;;;6.52;65.26
27729;BME280;15126;42.186;24.340;2023-04-05T06:31:00;98842.25;;;6.64;65.68
27729;BME280;15126;42.186;24.340;2023-04-05T06:33:27;98847.28;;;6.72;67.18
27729;BME280;15126;42.186;24.340;2023-04-05T06:35:55;98850.34;;;6.81;64.51
27729;BME280;15126;42.186;24.340;2023-04-05T06:38:22;98864.91;;;6.85;64.22
27729;BME280;15126;42.186;24.340;2023-04-05T06:40:49;98862.41;;;6.94;64.59
27729;BME280;15126;42.186;24.340;2023-04-05T06:43:16;98863.59;;;6.93;64.63
27729;BME280;15126;42.186;24.340;2023-04-05T06:45:43;98866.66;;;7.02;63.46
27729;BME280;15126;42.186;24.340;2023-04-05T06:48:10;98845.91;;;6.87;63.32
27729;BME280;15126;42.186;24.340;2023-04-05T06:50:36;98871.63;;;7.14;62.98
27729;BME280;15126;42.186;24.340;2023-04-05T06:53:06;98880.78;;;7.11;63.96
27729;BME280;15126;42.186;24.340;2023-04-05T06:55:33;98884.63;;;7.17;62.95
27729;BME280;15126;42.186;24.340;2023-04-05T06:58:00;98891.81;;;7.15;61.37
27729;BME280;15126;42.186;24.340;2023-04-05T07:00:27;98889.03;;;7.15;64.17
27729;BME280;15126;42.186;24.340;2023-04-05T07:02:53;98880.31;;;7.16;63.42
27729;BME280;15126;42.186;24.340;2023-04-05T07:05:20;98885.38;;;7.22;62.63
27729;BME280;15126;42.186;24.340;2023-04-05T07:07:47;98895.97;;;7.30;64.28
27729;BME280;15126;42.186;24.340;2023-04-05T07:10:15;98896.28;;;7.36;62.87
27729;BME280;15126;42.186;24.340;2023-04-05T07:12:42;98901.47;;;7.34;62.13
27729;BME280;15126;42.186;24.340;2023-04-05T07:15:10;98907.00;;;7.34;61.79
27729;BME280;15126;42.186;24.340;2023-04-05T07:17:37;98904.91;;;7.41;62.66
27729;BME280;15126;42.186;24.340;2023-04-05T07:20:04;98890.78;;;7.32;60.62
27729;BME280;15126;42.186;24.340;2023-04-05T07:22:32;98902.34;;;7.27;63.62
27729;BME280;15126;42.186;24.340;2023-04-05T07:25:00;98912.97;;;7.32;62.44
27729;BME280;15126;42.186;24.340;2023-04-05T07:27:29;98905.78;;;7.35;61.96
27729;BME280;15126;42.186;24.340;2023-04-05T07:29:56;98912.81;;;7.43;64.49
27729;BME280;15126;42.186;24.340;2023-04-05T07:32:23;98914.47;;;7.37;62.57
27729;BME280;15126;42.186;24.340;2023-04-05T07:34:50;98906.75;;;7.25;61.46
27729;BME280;15126;42.186;24.340;2023-04-05T07:37:17;98919.56;;;7.42;60.84
27729;BME280;15126;42.186;24.340;2023-04-05T07:39:44;98902.69;;;7.29;64.32
27729;BME280;15126;42.186;24.340;2023-04-05T07:42:11;98924.16;;;7.52;61.49
27729;BME280;15126;42.186;24.340;2023-04-05T07:44:39;98926.66;;;7.69;61.00
27729;BME280;15126;42.186;24.340;2023-04-05T07:47:06;98911.53;;;7.74;61.66
27729;BME280;15126;42.186;24.340;2023-04-05T07:49:32;98930.97;;;7.97;63.17
27729;BME280;15126;42.186;24.340;2023-04-05T07:51:59;98939.59;;;8.03;58.91
27729;BME280;15126;42.186;24.340;2023-04-05T07:54:26;98935.63;;;8.04;60.77
27729;BME280;15126;42.186;24.340;2023-04-05T07:56:53;98933.72;;;7.97;60.87
27729;BME280;15126;42.186;24.340;2023-04-05T07:59:22;98934.81;;;8.03;59.18
27729;BME280;15126;42.186;24.340;2023-04-05T08:01:50;98931.91;;;8.10;59.83
27729;BME280;15126;42.186;24.340;2023-04-05T08:04:17;98946.94;;;8.13;59.57
27729;BME280;15126;42.186;24.340;2023-04-05T08:06:45;98949.66;;;8.16;58.97
27729;BME280;15126;42.186;24.340;2023-04-05T08:09:12;98951.78;;;8.32;59.19
27729;BME280;15126;42.186;24.340;2023-04-05T08:11:39;98954.75;;;8.45;57.63
27729;BME280;15126;42.186;24.340;2023-04-05T08:14:06;98949.25;;;8.41;57.12
27729;BME280;15126;42.186;24.340;2023-04-05T08:16:33;98947.31;;;8.38;58.94
27729;BME280;15126;42.186;24.340;2023-04-05T08:19:01;98951.69;;;8.39;56.13
27729;BME280;15126;42.186;24.340;2023-04-05T08:21:28;98956.09;;;8.36;57.40
27729;BME280;15126;42.186;24.340;2023-04-05T08:23:56;98961.50;;;8.44;57.07
27729;BME280;15126;42.186;24.340;2023-04-05T08:26:24;98956.69;;;8.48;57.86
27729;BME280;15126;42.186;24.340;2023-04-05T08:28:51;98967.06;;;8.44;58.88
27729;BME280;15126;42.186;24.340;2023-04-05T08:31:18;98947.03;;;8.32;58.43
27729;BME280;15126;42.186;24.340;2023-04-05T08:33:45;98971.25;;;8.32;58.25
27729;BME280;15126;42.186;24.340;2023-04-05T08:36:13;98965.34;;;8.26;59.24
27729;BME280;15126;42.186;24.340;2023-04-05T08:38:40;98967.16;;;8.13;57.90
27729;BME280;15126;42.186;24.340;2023-04-05T08:41:11;98967.78;;;8.24;59.92
27729;BME280;15126;42.186;24.340;2023-04-05T08:43:50;98971.72;;;8.27;59.85
27729;BME280;15126;42.186;24.340;2023-04-05T08:46:21;98966.16;;;8.27;59.47
27729;BME280;15126;42.186;24.340;2023-04-05T08:48:48;98974.00;;;8.32;58.83
27729;BME280;15126;42.186;24.340;2023-04-05T08:51:19;98972.94;;;8.26;57.88
27729;BME280;15126;42.186;24.340;2023-04-05T08:53:46;98975.59;;;8.33;59.28
27729;BME280;15126;42.186;24.340;2023-04-05T08:56:14;98975.03;;;8.42;58.14
27729;BME280;15126;42.186;24.340;2023-04-05T08:58:45;98970.78;;;8.57;57.49
27729;BME280;15126;42.186;24.340;2023-04-05T09:01:15;98970.22;;;8.65;60.31
27729;BME280;15126;42.186;24.340;2023-04-05T09:03:43;98980.06;;;8.70;58.71
27729;BME280;15126;42.186;24.340;2023-04-05T09:06:11;98967.59;;;8.78;58.25
27729;BME280;15126;42.186;24.340;2023-04-05T09:08:40;98956.69;;;8.67;58.17
27729;BME280;15126;42.186;24.340;2023-04-05T09:11:07;98966.59;;;8.68;56.89
27729;BME280;15126;42.186;24.340;2023-04-05T09:13:34;98982.22;;;8.82;55.54
27729;BME280;15126;42.186;24.340;2023-04-05T09:16:01;98972.72;;;8.60;56.61
27729;BME280;15126;42.186;24.340;2023-04-05T09:18:28;98989.84;;;8.78;55.42
27729;BME280;15126;42.186;24.340;2023-04-05T09:21:02;98968.31;;;8.62;56.92
27729;BME280;15126;42.186;24.340;2023-04-05T09:23:30;98994.69;;;8.74;58.68
27729;BME280;15126;42.186;24.340;2023-04-05T09:25:58;98989.22;;;8.90;56.83
27729;BME280;15126;42.186;24.340;2023-04-05T09:28:39;99000.69;;;8.92;59.95
27729;BME280;15126;42.186;24.340;2023-04-05T09:31:06;99006.81;;;9.03;58.02
27729;BME280;15126;42.186;24.340;2023-04-05T09:33:33;98995.56;;;9.10;57.05
27729;BME280;15126;42.186;24.340;2023-04-05T09:36:03;98982.72;;;9.16;55.39
27729;BME280;15126;42.186;24.340;2023-04-05T09:38:44;98997.16;;;9.47;55.02
27729;BME280;15126;42.186;24.340;2023-04-05T09:41:13;99001.25;;;9.42;57.92
27729;BME280;15126;42.186;24.340;2023-04-05T09:43:41;99007.31;;;9.37;56.48
27729;BME280;15126;42.186;24.340;2023-04-05T09:46:28;98992.84;;;9.26;56.43
27729;BME280;15126;42.186;24.340;2023-04-05T09:48:55;98988.94;;;9.24;55.67
27729;BME280;15126;42.186;24.340;2023-04-05T09:51:22;98996.22;;;9.18;57.56
27729;BME280;15126;42.186;24.340;2023-04-05T09:53:56;99000.19;;;9.17;57.78
27729;BME280;15126;42.186;24.340;2023-04-05T09:56:26;98999.28;;;9.23;57.12
27729;BME280;15126;42.186;24.340;2023-04-05T09:58:57;99000.63;;;9.15;56.43
27729;BME280;15126;42.186;24.340;2023-04-05T10:01:26;98994.97;;;9.19;58.82
27729;BME280;15126;42.186;24.340;2023-04-05T10:03:56;98990.19;;;9.19;55.20
27729;BME280;15126;42.186;24.340;2023-04-05T10:06:23;98993.34;;;9.21;57.77
27729;BME280;15126;42.186;24.340;2023-04-05T10:08:50;98994.22;;;9.18;55.67
27729;BME280;15126;42.186;24.340;2023-04-05T10:11:17;98990.06;;;9.26;54.78
27729;BME280;15126;42.186;24.340;2023-04-05T10:13:47;98993.13;;;9.32;57.39
27729;BME280;15126;42.186;24.340;2023-04-05T10:16:19;98984.84;;;9.28;56.30
27729;BME280;15126;42.186;24.340;2023-04-05T10:18:49;98969.41;;;9.43;57.18
27729;BME280;15126;42.186;24.340;2023-04-05T10:21:21;98986.38;;;9.49;57.27
27729;BME280;15126;42.186;24.340;2023-04-05T10:23:53;98980.22;;;9.57;57.32
27729;BME280;15126;42.186;24.340;2023-04-05T10:26:25;98991.00;;;9.55;57.33
27729;BME280;15126;42.186;24.340;2023-04-05T10:29:01;98983.34;;;9.59;54.82
27729;BME280;15126;42.186;24.340;2023-04-05T10:31:38;98987.03;;;9.56;54.76
27729;BME280;15126;42.186;24.340;2023-04-05T10:34:15;98996.81;;;9.45;55.33
27729;BME280;15126;42.186;24.340;2023-04-05T10:36:49;98989.06;;;9.17;55.92
27729;BME280;15126;42.186;24.340;2023-04-05T10:39:19;98995.84;;;9.16;59.99
27729;BME280;15126;42.186;24.340;2023-04-05T10:41:52;98994.91;;;9.03;59.45
27729;BME280;15126;42.186;24.340;2023-04-05T10:44:20;98996.75;;;8.89;58.22
27729;BME280;15126;42.186;24.340;2023-04-05T10:46:48;98993.19;;;8.89;57.93
27729;BME280;15126;42.186;24.340;2023-04-05T10:49:21;98996.84;;;9.06;57.57
27729;BME280;15126;42.186;24.340;2023-04-05T10:51:49;98990.06;;;9.07;60.21
27729;BME280;15126;42.186;24.340;2023-04-05T10:54:18;98990.19;;;9.19;57.97
27729;BME280;15126;42.186;24.340;2023-04-05T10:56:45;98992.91;;;9.23;58.45
27729;BME280;15126;42.186;24.340;2023-04-05T10:59:13;98983.00;;;9.22;56.50
27729;BME280;15126;42.186;24.340;2023-04-05T11:01:42;98995.81;;;9.35;57.46
27729;BME280;15126;42.186;24.340;2023-04-05T11:04:12;98990.81;;;9.46;59.14
27729;BME280;15126;42.186;24.340;2023-04-05T11:06:39;98997.22;;;9.43;58.83
27729;BME280;15126;42.186;24.340;2023-04-05T11:09:11;98994.97;;;9.38;56.33
27729;BME280;15126;42.186;24.340;2023-04-05T11:11:40;99008.94;;;9.35;59.03
27729;BME280;15126;42.186;24.340;2023-04-05T11:14:17;98987.91;;;9.34;59.11
27729;BME280;15126;42.186;24.340;2023-04-05T11:16:48;99001.03;;;9.33;55.91
27729;BME280;15126;42.186;24.340;2023-04-05T11:19:17;98999.16;;;9.46;59.46
27729;BME280;15126;42.186;24.340;2023-04-05T11:21:44;98987.69;;;9.44;57.48
27729;BME280;15126;42.186;24.340;2023-04-05T11:24:12;98997.16;;;9.47;58.82
27729;BME280;15126;42.186;24.340;2023-04-05T11:26:53;99005.16;;;9.45;59.72
27729;BME280;15126;42.186;24.340;2023-04-05T11:29:45;98995.91;;;9.68;58.43
27729;BME280;15126;42.186;24.340;2023-04-05T11:32:15;98996.16;;;9.73;59.19
27729;BME280;15126;42.186;24.340;2023-04-05T11:34:42;98990.88;;;9.79;56.56
27729;BME280;15126;42.186;24.340;2023-04-05T11:37:09;98992.44;;;9.80;57.16
27729;BME280;15126;42.186;24.340;2023-04-05T11:39:36;98991.59;;;9.83;57.11
27729;BME280;15126;42.186;24.340;2023-04-05T11:42:04;98984.75;;;9.68;57.61
27729;BME280;15126;42.186;24.340;2023-04-05T11:44:45;98998.56;;;9.55;56.39
27729;BME280;15126;42.186;24.340;2023-04-05T11:47:12;98994.13;;;9.57;55.44
27729;BME280;15126;42.186;24.340;2023-04-05T11:49:48;98990.88;;;9.79;56.64
27729;BME280;15126;42.186;24.340;2023-04-05T11:52:17;98990.72;;;9.86;55.81
27729;BME280;15126;42.186;24.340;2023-04-05T11:54:44;98977.22;;;9.84;53.23
27729;BME280;15126;42.186;24.340;2023-04-05T11:57:13;98991.94;;;10.01;56.06
27729;BME280;15126;42.186;24.340;2023-04-05T11:59:41;98999.78;;;10.06;54.88
27729;BME280;15126;42.186;24.340;2023-04-05T12:02:07;98992.84;;;10.14;57.36
27729;BME280;15126;42.186;24.340;2023-04-05T12:04:35;98993.94;;;10.00;56.46
27729;BME280;15126;42.186;24.340;2023-04-05T12:07:14;98993.94;;;10.00;54.94
27729;BME280;15126;42.186;24.340;2023-04-05T12:10:04;98996.84;;;10.13;55.44
27729;BME280;15126;42.186;24.340;2023-04-05T12:12:37;98986.03;;;9.99;55.89
27729;BME280;15126;42.186;24.340;2023-04-05T12:15:05;98995.44;;;10.05;56.88
27729;BME280;15126;42.186;24.340;2023-04-05T12:17:38;98990.38;;;10.00;56.38
27729;BME280;15126;42.186;24.340;2023-04-05T12:20:06;99001.69;;;9.93;57.14
27729;BME280;15126;42.186;24.340;2023-04-05T12:22:35;98995.78;;;10.07;57.86
27729;BME280;15126;42.186;24.340;2023-04-05T12:25:03;98992.13;;;9.94;57.75
27729;BME280;15126;42.186;24.340;2023-04-05T12:27:30;98995.06;;;10.03;59.49
27729;BME280;15126;42.186;24.340;2023-04-05T12:30:11;98991.00;;;10.07;57.30
27729;BME280;15126;42.186;24.340;2023-04-05T12:32:41;98985.41;;;10.07;57.77
27729;BME280;15126;42.186;24.340;2023-04-05T12:35:11;98974.28;;;9.91;55.00
27729;BME280;15126;42.186;24.340;2023-04-05T12:37:40;98976.19;;;10.10;54.86
27729;BME280;15126;42.186;24.340;2023-04-05T12:40:08;98985.00;;;10.25;55.82
27729;BME280;15126;42.186;24.340;2023-04-05T12:42:36;98978.72;;;10.37;56.04
27729;BME280;15126;42.186;24.340;2023-04-05T12:45:05;98982.19;;;10.41;55.65
27729;BME280;15126;42.186;24.340;2023-04-05T12:47:33;98974.69;;;10.54;55.92
27729;BME280;15126;42.186;24.340;2023-04-05T12:50:12;98979.19;;;10.64;51.94
27729;BME280;15126;42.186;24.340;2023-04-05T12:52:52;98983.44;;;10.69;55.59
27729;BME280;15126;42.186;24.340;2023-04-05T12:55:19;98985.38;;;10.72;55.00
27729;BME280;15126;42.186;24.340;2023-04-05T12:57:49;98982.56;;;10.72;54.22
27729;BME280;15126;42.186;24.340;2023-04-05T13:00:17;98984.41;;;10.79;53.00
27729;BME280;15126;42.186;24.340;2023-04-05T13:02:48;98973.91;;;10.83;52.93
27729;BME280;15126;42.186;24.340;2023-04-05T13:05:18;98978.28;;;10.84;53.03
27729;BME280;15126;42.186;24.340;2023-04-05T13:07:45;98977.50;;;10.83;54.29
27729;BME280;15126;42.186;24.340;2023-04-05T13:10:13;98974.50;;;10.90;53.37
27729;BME280;15126;42.186;24.340;2023-04-05T13:12:40;98968.50;;;10.92;52.99
27729;BME280;15126;42.186;24.340;2023-04-05T13:15:08;98961.16;;;10.98;53.10